sensor_id;sensor_type;location;lat;lon;timestamp;temperature;humidity
16666;DHT22;8446;50.99880500;6.25021400;2024-03-02T00:00:29;8.80;99.90
16666;DHT22;8446;50.99880500;6.25021400;2024-03-02T00:03:01;8.70;99.90
16666;DHT22;8446;50.99880500;6.25021400;2024-03-02T00:05:33;8.80;99.90
16666;DHT22;8446;50.99880500;6.25021400;2024-03-02T00:08:07;8.90;99.90
16666;DHT22;8446;50.99880500;6.25021400;2024-03-02T00:10:39;8.80;99.90
16666;DHT22;8446;50.99880500;6.25021400;2024-03-02T00:13:13;9.00;99.90
16666;DHT22;8446;50.99880500;6.25021400;2024-03-02T00:15:46;9.00;99.90
16666;DHT22;8446;50.99880500;6.25021400;2024-03-02T00:18:19;8.90;99.90
16666;DHT22;8446;50.99880500;6.25021400;2024-03-02T00:20:53;9.00;99.90
16666;DHT22;8446;50.99880500;6.25021400;2024-03-02T00:23:30;9.00;99.90
16666;DHT22;8446;50.99880500;6.25021400;2024-03-02T00:26:02;8.90;99.90
16666;DHT22;8446;50.99880500;6.25021400;2024-03-02T00:28:35;8.80;99.90
16666;DHT22;8446;50.99880500;6.25021400;2024-03-02T00:31:08;8.80;99.90
16666;DHT22;8446;50.99880500;6.25021400;2024-03-02T00:33:43;8.70;99.90
16666;DHT22;8446;50.99880500;6.25021400;2024-03-02T00:36:16;8.50;99.90
16666;DHT22;8446;50.99880500;6.25021400;2024-03-02T00:38:51;8.50;99.90
16666;DHT22;8446;50.99880500;6.25021400;2024-03-02T00:41:25;8.40;99.90
16666;DHT22;8446;50.99880500;6.25021400;2024-03-02T00:43:59;8.50;99.90
16666;DHT22;8446;50.99880500;6.25021400;2024-03-02T00:46:34;8.60;99.90
16666;DHT22;8446;50.99880500;6.25021400;2024-03-02T00:49:20;8.50;99.90
16666;DHT22;8446;50.99880500;6.25021400;2024-03-02T00:51:53;8.50;99.90
16666;DHT22;8446;50.99880500;6.25021400;2024-03-02T00:54:27;8.40;99.90
16666;DHT22;8446;50.99880500;6.25021400;2024-03-02T00:56:59;8.30;99.90
16666;DHT22;8446;50.99880500;6.25021400;2024-03-02T00:59:31;8.50;99.90
16666;DHT22;8446;50.99880500;6.25021400;2024-03-02T01:02:03;8.40;99.90
16666;DHT22;8446;50.99880500;6.25021400;2024-03-02T01:04:35;8.40;99.90
16666;DHT22;8446;50.99880500;6.25021400;2024-03-02T01:07:07;8.70;99.90
16666;DHT22;8446;50.99880500;6.25021400;2024-03-02T01:09:40;8.70;99.90
16666;DHT22;8446;50.99880500;6.25021400;2024-03-02T01:12:11;8.70;99.90
16666;DHT22;8446;50.99880500;6.25021400;2024-03-02T01:14:43;8.80;99.90
16666;DHT22;8446;50.99880500;6.25021400;2024-03-02T01:17:15;8.80;99.90
16666;DHT22;8446;50.99880500;6.25021400;2024-03-02T01:19:47;8.80;99.90
16666;DHT22;8446;50.99880500;6.25021400;2024-03-02T01:22:18;8.90;99.90
16666;DHT22;8446;50.99880500;6.25021400;2024-03-02T01:24:56;8.90;99.90
16666;DHT22;8446;50.99880500;6.25021400;2024-03-02T01:27:28;8.80;99.90
16666;DHT22;8446;50.99880500;6.25021400;2024-03-02T01:30:00;8.80;99.90
16666;DHT22;8446;50.99880500;6.25021400;2024-03-02T01:32:32;8.90;99.90
16666;DHT22;8446;50.99880500;6.25021400;2024-03-02T01:35:04;9.10;99.90
16666;DHT22;8446;50.99880500;6.25021400;2024-03-02T01:37:35;9.10;99.90
16666;DHT22;8446;50.99880500;6.25021400;2024-03-02T01:40:10;9.00;99.90
16666;DHT22;8446;50.99880500;6.25021400;2024-03-02T01:42:43;9.00;99.90
16666;DHT22;8446;50.99880500;6.25021400;2024-03-02T01:45:15;9.00;99.90
16666;DHT22;8446;50.99880500;6.25021400;2024-03-02T01:47:47;9.20;99.90
16666;DHT22;8446;50.99880500;6.25021400;2024-03-02T01:50:25;9.10;99.90
16666;DHT22;8446;50.99880500;6.25021400;2024-03-02T01:52:57;9.20;99.90
16666;DHT22;8446;50.99880500;6.25021400;2024-03-02T01:55:30;9.50;99.90
16666;DHT22;8446;50.99880500;6.25021400;2024-03-02T01:58:03;9.40;99.90
16666;DHT22;8446;50.99880500;6.25021400;2024-03-02T02:00:35;9.40;99.90
16666;DHT22;8446;50.99880500;6.25021400;2024-03-02T02:03:07;9.30;99.90
16666;DHT22;8446;50.99880500;6.25021400;2024-03-02T02:05:39;9.20;99.90
16666;DHT22;8446;50.99880500;6.25021400;2024-03-02T02:08:13;9.20;99.90
16666;DHT22;8446;50.99880500;6.25021400;2024-03-02T02:10:46;9.00;99.90
16666;DHT22;8446;50.99880500;6.25021400;2024-03-02T02:13:18;8.90;99.90
16666;DHT22;8446;50.99880500;6.25021400;2024-03-02T02:15:50;8.90;99.90
16666;DHT22;8446;50.99880500;6.25021400;2024-03-02T02:18:23;8.70;99.90
16666;DHT22;8446;50.99880500;6.25021400;2024-03-02T02:20:55;8.40;99.90
16666;DHT22;8446;50.99880500;6.25021400;2024-03-02T02:23:28;8.10;99.90
16666;DHT22;8446;50.99880500;6.25021400;2024-03-02T02:26:00;8.00;99.90
16666;DHT22;8446;50.99880500;6.25021400;2024-03-02T02:28:33;7.90;99.90
16666;DHT22;8446;50.99880500;6.25021400;2024-03-02T02:31:04;7.80;99.90
16666;DHT22;8446;50.99880500;6.25021400;2024-03-02T02:33:39;7.70;99.90
16666;DHT22;8446;50.99880500;6.25021400;2024-03-02T02:36:10;7.60;99.90
16666;DHT22;8446;50.99880500;6.25021400;2024-03-02T02:38:45;7.50;99.90
16666;DHT22;8446;50.99880500;6.25021400;2024-03-02T02:41:18;7.50;99.90
16666;DHT22;8446;50.99880500;6.25021400;2024-03-02T02:43:49;7.40;99.90
16666;DHT22;8446;50.99880500;6.25021400;2024-03-02T02:46:21;7.50;99.90
16666;DHT22;8446;50.99880500;6.25021400;2024-03-02T02:48:53;7.40;99.90
16666;DHT22;8446;50.99880500;6.25021400;2024-03-02T02:51:25;7.40;99.90
16666;DHT22;8446;50.99880500;6.25021400;2024-03-02T02:53:58;7.40;99.90
16666;DHT22;8446;50.99880500;6.25021400;2024-03-02T02:56:30;7.40;99.90
16666;DHT22;8446;50.99880500;6.25021400;2024-03-02T02:59:01;7.30;99.90
16666;DHT22;8446;50.99880500;6.25021400;2024-03-02T03:01:33;7.40;99.90
16666;DHT22;8446;50.99880500;6.25021400;2024-03-02T03:04:05;7.40;99.90
16666;DHT22;8446;50.99880500;6.25021400;2024-03-02T03:06:36;7.40;99.90
16666;DHT22;8446;50.99880500;6.25021400;2024-03-02T03:09:10;7.30;99.90
16666;DHT22;8446;50.99880500;6.25021400;2024-03-02T03:11:42;7.30;99.90
16666;DHT22;8446;50.99880500;6.25021400;2024-03-02T03:14:14;7.30;99.90
16666;DHT22;8446;50.99880500;6.25021400;2024-03-02T03:16:46;7.30;99.90
16666;DHT22;8446;50.99880500;6.25021400;2024-03-02T03:19:19;7.30;99.90
16666;DHT22;8446;50.99880500;6.25021400;2024-03-02T03:21:50;7.20;99.90
16666;DHT22;8446;50.99880500;6.25021400;2024-03-02T03:24:24;7.10;99.90
16666;DHT22;8446;50.99880500;6.25021400;2024-03-02T03:26:55;7.10;99.90
16666;DHT22;8446;50.99880500;6.25021400;2024-03-02T03:29:27;7.10;99.90
16666;DHT22;8446;50.99880500;6.25021400;2024-03-02T03:31:59;7.10;99.90
16666;DHT22;8446;50.99880500;6.25021400;2024-03-02T03:34:32;7.10;99.90
16666;DHT22;8446;50.99880500;6.25021400;2024-03-02T03:37:04;7.00;99.90
16666;DHT22;8446;50.99880500;6.25021400;2024-03-02T03:39:37;6.90;99.90
16666;DHT22;8446;50.99880500;6.25021400;2024-03-02T03:42:09;6.80;99.90
16666;DHT22;8446;50.99880500;6.25021400;2024-03-02T03:44:40;6.80;99.90
16666;DHT22;8446;50.99880500;6.25021400;2024-03-02T03:47:12;6.80;99.90
16666;DHT22;8446;50.99880500;6.25021400;2024-03-02T03:49:44;6.80;99.90
16666;DHT22;8446;50.99880500;6.25021400;2024-03-02T03:52:15;6.80;99.90
16666;DHT22;8446;50.99880500;6.25021400;2024-03-02T03:54:48;6.70;99.90
16666;DHT22;8446;50.99880500;6.25021400;2024-03-02T03:57:20;6.70;99.90
16666;DHT22;8446;50.99880500;6.25021400;2024-03-02T03:59:52;6.80;99.90
16666;DHT22;8446;50.99880500;6.25021400;2024-03-02T04:02:24;6.70;99.90
16666;DHT22;8446;50.99880500;6.25021400;2024-03-02T04:04:56;6.70;99.90
16666;DHT22;8446;50.99880500;6.25021400;2024-03-02T04:07:27;6.70;99.90
16666;DHT22;8446;50.99880500;6.25021400;2024-03-02T04:10:01;6.70;99.90
16666;DHT22;8446;50.99880500;6.25021400;2024-03-02T04:12:34;6.80;99.90
16666;DHT22;8446;50.99880500;6.25021400;2024-03-02T04:15:06;6.80;99.90
16666;DHT22;8446;50.99880500;6.25021400;2024-03-02T04:17:38;6.90;99.90
16666;DHT22;8446;50.99880500;6.25021400;2024-03-02T04:20:11;6.90;99.90
16666;DHT22;8446;50.99880500;6.25021400;2024-03-02T04:22:43;7.00;99.90
16666;DHT22;8446;50.99880500;6.25021400;2024-03-02T04:25:16;7.00;99.90
16666;DHT22;8446;50.99880500;6.25021400;2024-03-02T04:27:47;6.90;99.90
16666;DHT22;8446;50.99880500;6.25021400;2024-03-02T04:30:19;7.00;99.90
16666;DHT22;8446;50.99880500;6.25021400;2024-03-02T04:32:51;7.00;99.90
16666;DHT22;8446;50.99880500;6.25021400;2024-03-02T04:35:23;7.00;99.90
16666;DHT22;8446;50.99880500;6.25021400;2024-03-02T04:37:55;7.00;99.90
16666;DHT22;8446;50.99880500;6.25021400;2024-03-02T04:40:28;7.00;99.90
16666;DHT22;8446;50.99880500;6.25021400;2024-03-02T04:43:00;7.10;99.90
16666;DHT22;8446;50.99880500;6.25021400;2024-03-02T04:45:33;7.30;99.90
16666;DHT22;8446;50.99880500;6.25021400;2024-03-02T04:48:05;7.40;99.90
16666;DHT22;8446;50.99880500;6.25021400;2024-03-02T04:50:37;7.50;99.90
16666;DHT22;8446;50.99880500;6.25021400;2024-03-02T04:53:09;7.50;99.90
16666;DHT22;8446;50.99880500;6.25021400;2024-03-02T04:55:42;7.50;99.90
16666;DHT22;8446;50.99880500;6.25021400;2024-03-02T04:58:40;7.50;99.90
16666;DHT22;8446;50.99880500;6.25021400;2024-03-02T05:01:12;7.50;99.90
16666;DHT22;8446;50.99880500;6.25021400;2024-03-02T05:03:43;7.50;99.90
16666;DHT22;8446;50.99880500;6.25021400;2024-03-02T05:06:15;7.40;99.90
16666;DHT22;8446;50.99880500;6.25021400;2024-03-02T05:08:47;7.30;99.90
16666;DHT22;8446;50.99880500;6.25021400;2024-03-02T05:11:20;7.30;99.90
16666;DHT22;8446;50.99880500;6.25021400;2024-03-02T05:14:29;7.20;99.90
16666;DHT22;8446;50.99880500;6.25021400;2024-03-02T05:17:01;7.10;99.90
16666;DHT22;8446;50.99880500;6.25021400;2024-03-02T05:19:33;7.00;99.90
16666;DHT22;8446;50.99880500;6.25021400;2024-03-02T05:22:04;6.90;99.90
16666;DHT22;8446;50.99880500;6.25021400;2024-03-02T05:24:36;6.90;99.90
16666;DHT22;8446;50.99880500;6.25021400;2024-03-02T05:27:09;6.80;99.90
16666;DHT22;8446;50.99880500;6.25021400;2024-03-02T05:29:41;6.90;99.90
16666;DHT22;8446;50.99880500;6.25021400;2024-03-02T05:32:13;6.90;99.90
16666;DHT22;8446;50.99880500;6.25021400;2024-03-02T05:34:44;7.00;99.90
16666;DHT22;8446;50.99880500;6.25021400;2024-03-02T05:37:16;7.10;99.90
16666;DHT22;8446;50.99880500;6.25021400;2024-03-02T05:39:48;7.10;99.90
16666;DHT22;8446;50.99880500;6.25021400;2024-03-02T05:42:21;7.10;99.90
16666;DHT22;8446;50.99880500;6.25021400;2024-03-02T05:44:52;7.10;99.90
16666;DHT22;8446;50.99880500;6.25021400;2024-03-02T05:47:24;7.20;99.90
16666;DHT22;8446;50.99880500;6.25021400;2024-03-02T05:49:56;7.30;99.90
16666;DHT22;8446;50.99880500;6.25021400;2024-03-02T05:52:28;7.50;99.90
16666;DHT22;8446;50.99880500;6.25021400;2024-03-02T05:54:59;7.50;99.90
16666;DHT22;8446;50.99880500;6.25021400;2024-03-02T05:57:32;7.40;99.90
16666;DHT22;8446;50.99880500;6.25021400;2024-03-02T06:00:18;7.40;99.90
16666;DHT22;8446;50.99880500;6.25021400;2024-03-02T06:02:49;7.40;99.90
16666;DHT22;8446;50.99880500;6.25021400;2024-03-02T06:05:21;7.40;99.90
16666;DHT22;8446;50.99880500;6.25021400;2024-03-02T06:07:53;7.40;99.90
16666;DHT22;8446;50.99880500;6.25021400;2024-03-02T06:10:25;7.50;99.90
16666;DHT22;8446;50.99880500;6.25021400;2024-03-02T06:12:58;7.60;99.90
16666;DHT22;8446;50.99880500;6.25021400;2024-03-02T06:15:30;7.60;99.90
16666;DHT22;8446;50.99880500;6.25021400;2024-03-02T06:18:02;7.50;99.90
16666;DHT22;8446;50.99880500;6.25021400;2024-03-02T06:20:33;7.60;99.90
16666;DHT22;8446;50.99880500;6.25021400;2024-03-02T06:23:05;7.70;99.90
16666;DHT22;8446;50.99880500;6.25021400;2024-03-02T06:25:37;7.60;99.90
16666;DHT22;8446;50.99880500;6.25021400;2024-03-02T06:28:10;7.50;99.90
16666;DHT22;8446;50.99880500;6.25021400;2024-03-02T06:30:41;7.50;99.90
16666;DHT22;8446;50.99880500;6.25021400;2024-03-02T06:33:13;7.50;99.90
16666;DHT22;8446;50.99880500;6.25021400;2024-03-02T06:35:45;7.50;99.90
16666;DHT22;8446;50.99880500;6.25021400;2024-03-02T06:38:17;7.50;99.90
16666;DHT22;8446;50.99880500;6.25021400;2024-03-02T06:40:48;7.50;99.90
16666;DHT22;8446;50.99880500;6.25021400;2024-03-02T06:43:22;7.40;99.90
16666;DHT22;8446;50.99880500;6.25021400;2024-03-02T06:45:54;7.40;99.90
16666;DHT22;8446;50.99880500;6.25021400;2024-03-02T06:48:26;7.30;99.90
16666;DHT22;8446;50.99880500;6.25021400;2024-03-02T06:50:59;7.20;99.90
16666;DHT22;8446;50.99880500;6.25021400;2024-03-02T06:53:31;7.20;99.90
16666;DHT22;8446;50.99880500;6.25021400;2024-03-02T06:56:05;7.10;99.90
16666;DHT22;8446;50.99880500;6.25021400;2024-03-02T06:58:38;7.00;99.90
16666;DHT22;8446;50.99880500;6.25021400;2024-03-02T07:01:09;7.10;99.90
16666;DHT22;8446;50.99880500;6.25021400;2024-03-02T07:03:41;7.20;99.90
16666;DHT22;8446;50.99880500;6.25021400;2024-03-02T07:06:14;7.20;99.90
16666;DHT22;8446;50.99880500;6.25021400;2024-03-02T07:08:46;7.20;99.90
16666;DHT22;8446;50.99880500;6.25021400;2024-03-02T07:11:17;7.40;99.90
16666;DHT22;8446;50.99880500;6.25021400;2024-03-02T07:13:50;7.50;99.90
16666;DHT22;8446;50.99880500;6.25021400;2024-03-02T07:16:22;7.50;99.90
16666;DHT22;8446;50.99880500;6.25021400;2024-03-02T07:18:58;7.50;99.90
16666;DHT22;8446;50.99880500;6.25021400;2024-03-02T07:21:31;7.50;99.90
16666;DHT22;8446;50.99880500;6.25021400;2024-03-02T07:24:03;7.50;99.90
16666;DHT22;8446;50.99880500;6.25021400;2024-03-02T07:26:36;7.50;99.90
16666;DHT22;8446;50.99880500;6.25021400;2024-03-02T07:29:09;7.40;99.90
16666;DHT22;8446;50.99880500;6.25021400;2024-03-02T07:31:41;7.40;99.90
16666;DHT22;8446;50.99880500;6.25021400;2024-03-02T07:34:12;7.30;99.90
16666;DHT22;8446;50.99880500;6.25021400;2024-03-02T07:36:44;7.30;99.90
16666;DHT22;8446;50.99880500;6.25021400;2024-03-02T07:39:16;7.30;99.90
16666;DHT22;8446;50.99880500;6.25021400;2024-03-02T07:41:47;7.20;99.90
16666;DHT22;8446;50.99880500;6.25021400;2024-03-02T07:44:20;7.30;99.90
16666;DHT22;8446;50.99880500;6.25021400;2024-03-02T07:46:52;7.20;99.90
16666;DHT22;8446;50.99880500;6.25021400;2024-03-02T07:49:23;7.30;99.90
16666;DHT22;8446;50.99880500;6.25021400;2024-03-02T07:51:55;7.30;99.90
16666;DHT22;8446;50.99880500;6.25021400;2024-03-02T07:54:27;7.40;99.90
16666;DHT22;8446;50.99880500;6.25021400;2024-03-02T07:56:59;7.30;99.90
16666;DHT22;8446;50.99880500;6.25021400;2024-03-02T07:59:32;7.20;99.90
16666;DHT22;8446;50.99880500;6.25021400;2024-03-02T08:02:04;7.30;99.90
16666;DHT22;8446;50.99880500;6.25021400;2024-03-02T08:04:36;7.30;99.90
16666;DHT22;8446;50.99880500;6.25021400;2024-03-02T08:07:08;7.30;99.90
16666;DHT22;8446;50.99880500;6.25021400;2024-03-02T08:09:40;7.40;99.90
16666;DHT22;8446;50.99880500;6.25021400;2024-03-02T08:12:11;7.80;99.90
16666;DHT22;8446;50.99880500;6.25021400;2024-03-02T08:14:44;8.20;99.90
16666;DHT22;8446;50.99880500;6.25021400;2024-03-02T08:17:16;8.40;99.90
16666;DHT22;8446;50.99880500;6.25021400;2024-03-02T08:19:48;8.60;99.90
16666;DHT22;8446;50.99880500;6.25021400;2024-03-02T08:22:20;8.80;99.90
16666;DHT22;8446;50.99880500;6.25021400;2024-03-02T08:24:51;9.10;99.90
16666;DHT22;8446;50.99880500;6.25021400;2024-03-02T08:27:23;9.20;99.90
16666;DHT22;8446;50.99880500;6.25021400;2024-03-02T08:29:56;9.40;99.90
16666;DHT22;8446;50.99880500;6.25021400;2024-03-02T08:32:28;9.50;99.90
16666;DHT22;8446;50.99880500;6.25021400;2024-03-02T08:35:00;9.50;99.90
16666;DHT22;8446;50.99880500;6.25021400;2024-03-02T08:37:31;9.70;99.90
16666;DHT22;8446;50.99880500;6.25021400;2024-03-02T08:40:05;9.70;99.90
16666;DHT22;8446;50.99880500;6.25021400;2024-03-02T08:42:37;9.60;99.90
16666;DHT22;8446;50.99880500;6.25021400;2024-03-02T08:45:10;9.50;99.90
16666;DHT22;8446;50.99880500;6.25021400;2024-03-02T08:47:42;9.50;99.90
16666;DHT22;8446;50.99880500;6.25021400;2024-03-02T08:50:14;9.50;99.90
16666;DHT22;8446;50.99880500;6.25021400;2024-03-02T08:52:46;9.40;99.90
16666;DHT22;8446;50.99880500;6.25021400;2024-03-02T08:55:18;9.40;99.90
16666;DHT22;8446;50.99880500;6.25021400;2024-03-02T08:57:49;9.20;99.90
16666;DHT22;8446;50.99880500;6.25021400;2024-03-02T09:00:23;9.10;99.90
16666;DHT22;8446;50.99880500;6.25021400;2024-03-02T09:02:55;9.00;99.90
16666;DHT22;8446;50.99880500;6.25021400;2024-03-02T09:05:27;9.00;99.90
16666;DHT22;8446;50.99880500;6.25021400;2024-03-02T09:07:59;9.10;99.90
16666;DHT22;8446;50.99880500;6.25021400;2024-03-02T09:10:30;9.30;99.90
16666;DHT22;8446;50.99880500;6.25021400;2024-03-02T09:13:03;9.40;99.90
16666;DHT22;8446;50.99880500;6.25021400;2024-03-02T09:15:36;9.30;99.90
16666;DHT22;8446;50.99880500;6.25021400;2024-03-02T09:18:10;9.20;99.90
16666;DHT22;8446;50.99880500;6.25021400;2024-03-02T09:20:42;9.20;99.90
16666;DHT22;8446;50.99880500;6.25021400;2024-03-02T09:23:14;9.20;99.90
16666;DHT22;8446;50.99880500;6.25021400;2024-03-02T09:25:46;9.30;99.90
16666;DHT22;8446;50.99880500;6.25021400;2024-03-02T09:28:18;9.50;99.90
16666;DHT22;8446;50.99880500;6.25021400;2024-03-02T09:30:51;9.70;99.90
16666;DHT22;8446;50.99880500;6.25021400;2024-03-02T09:33:23;9.70;99.90
16666;DHT22;8446;50.99880500;6.25021400;2024-03-02T09:35:54;9.70;99.90
16666;DHT22;8446;50.99880500;6.25021400;2024-03-02T09:38:26;9.80;99.90
16666;DHT22;8446;50.99880500;6.25021400;2024-03-02T09:40:58;9.90;99.90
16666;DHT22;8446;50.99880500;6.25021400;2024-03-02T09:43:30;10.00;99.90
16666;DHT22;8446;50.99880500;6.25021400;2024-03-02T09:46:04;10.20;99.90
16666;DHT22;8446;50.99880500;6.25021400;2024-03-02T09:48:37;10.50;99.90
16666;DHT22;8446;50.99880500;6.25021400;2024-03-02T09:51:10;10.70;99.90
16666;DHT22;8446;50.99880500;6.25021400;2024-03-02T09:53:42;10.80;99.90
16666;DHT22;8446;50.99880500;6.25021400;2024-03-02T09:56:14;10.80;99.90
16666;DHT22;8446;50.99880500;6.25021400;2024-03-02T09:58:46;11.00;99.90
16666;DHT22;8446;50.99880500;6.25021400;2024-03-02T10:01:19;10.90;99.90
16666;DHT22;8446;50.99880500;6.25021400;2024-03-02T10:03:51;10.80;99.90
16666;DHT22;8446;50.99880500;6.25021400;2024-03-02T10:06:26;10.50;99.90
16666;DHT22;8446;50.99880500;6.25021400;2024-03-02T10:08:58;10.40;99.90
16666;DHT22;8446;50.99880500;6.25021400;2024-03-02T10:11:31;10.50;99.90
16666;DHT22;8446;50.99880500;6.25021400;2024-03-02T10:14:10;10.50;99.90
16666;DHT22;8446;50.99880500;6.25021400;2024-03-02T10:16:46;11.10;99.90
16666;DHT22;8446;50.99880500;6.25021400;2024-03-02T10:19:18;11.70;99.90
16666;DHT22;8446;50.99880500;6.25021400;2024-03-02T10:21:52;11.30;99.90
16666;DHT22;8446;50.99880500;6.25021400;2024-03-02T10:24:24;11.90;99.90
16666;DHT22;8446;50.99880500;6.25021400;2024-03-02T10:26:56;11.80;99.90
16666;DHT22;8446;50.99880500;6.25021400;2024-03-02T10:29:29;11.70;99.90
16666;DHT22;8446;50.99880500;6.25021400;2024-03-02T10:32:04;11.90;99.90
16666;DHT22;8446;50.99880500;6.25021400;2024-03-02T10:34:37;11.90;99.90
16666;DHT22;8446;50.99880500;6.25021400;2024-03-02T10:37:10;12.10;99.90
16666;DHT22;8446;50.99880500;6.25021400;2024-03-02T10:39:42;12.40;99.90
16666;DHT22;8446;50.99880500;6.25021400;2024-03-02T10:42:15;12.40;99.90
16666;DHT22;8446;50.99880500;6.25021400;2024-03-02T10:44:48;12.30;99.90
16666;DHT22;8446;50.99880500;6.25021400;2024-03-02T10:47:21;12.30;99.90
16666;DHT22;8446;50.99880500;6.25021400;2024-03-02T10:49:55;12.50;99.90
16666;DHT22;8446;50.99880500;6.25021400;2024-03-02T10:52:28;12.50;99.90
16666;DHT22;8446;50.99880500;6.25021400;2024-03-02T10:55:00;12.80;99.90
16666;DHT22;8446;50.99880500;6.25021400;2024-03-02T10:57:40;12.80;99.90
16666;DHT22;8446;50.99880500;6.25021400;2024-03-02T11:00:13;12.80;99.90
16666;DHT22;8446;50.99880500;6.25021400;2024-03-02T11:02:52;12.60;99.90
16666;DHT22;8446;50.99880500;6.25021400;2024-03-02T11:05:28;12.80;99.90
16666;DHT22;8446;50.99880500;6.25021400;2024-03-02T11:08:02;12.80;99.90
16666;DHT22;8446;50.99880500;6.25021400;2024-03-02T11:10:41;12.80;99.90
16666;DHT22;8446;50.99880500;6.25021400;2024-03-02T11:13:15;13.00;99.90
16666;DHT22;8446;50.99880500;6.25021400;2024-03-02T11:15:47;13.20;99.90
16666;DHT22;8446;50.99880500;6.25021400;2024-03-02T11:18:21;13.30;99.90
16666;DHT22;8446;50.99880500;6.25021400;2024-03-02T11:20:54;13.10;99.90
16666;DHT22;8446;50.99880500;6.25021400;2024-03-02T11:23:32;13.10;99.90
16666;DHT22;8446;50.99880500;6.25021400;2024-03-02T11:26:17;13.20;99.90
16666;DHT22;8446;50.99880500;6.25021400;2024-03-02T11:28:49;13.40;99.90
16666;DHT22;8446;50.99880500;6.25021400;2024-03-02T11:31:21;13.40;99.90
16666;DHT22;8446;50.99880500;6.25021400;2024-03-02T11:33:54;13.30;99.90
16666;DHT22;8446;50.99880500;6.25021400;2024-03-02T11:36:26;13.30;99.90
16666;DHT22;8446;50.99880500;6.25021400;2024-03-02T11:38:57;13.40;99.90
16666;DHT22;8446;50.99880500;6.25021400;2024-03-02T11:41:30;13.30;99.90
16666;DHT22;8446;50.99880500;6.25021400;2024-03-02T11:44:04;13.00;99.90
16666;DHT22;8446;50.99880500;6.25021400;2024-03-02T11:46:35;13.00;99.90
16666;DHT22;8446;50.99880500;6.25021400;2024-03-02T11:49:14;13.10;99.90
16666;DHT22;8446;50.99880500;6.25021400;2024-03-02T11:51:59;12.90;99.90
16666;DHT22;8446;50.99880500;6.25021400;2024-03-02T11:54:32;12.60;99.90
16666;DHT22;8446;50.99880500;6.25021400;2024-03-02T11:57:05;12.60;99.90
16666;DHT22;8446;50.99880500;6.25021400;2024-03-02T11:59:37;12.80;99.90
16666;DHT22;8446;50.99880500;6.25021400;2024-03-02T12:02:15;12.90;99.90
16666;DHT22;8446;50.99880500;6.25021400;2024-03-02T12:04:49;12.80;99.90
16666;DHT22;8446;50.99880500;6.25021400;2024-03-02T12:07:23;12.80;99.90
16666;DHT22;8446;50.99880500;6.25021400;2024-03-02T12:10:00;12.70;99.90
16666;DHT22;8446;50.99880500;6.25021400;2024-03-02T12:12:32;12.70;99.90
16666;DHT22;8446;50.99880500;6.25021400;2024-03-02T12:15:05;12.70;99.90
16666;DHT22;8446;50.99880500;6.25021400;2024-03-02T12:17:37;12.80;99.90
16666;DHT22;8446;50.99880500;6.25021400;2024-03-02T12:20:12;12.80;99.90
16666;DHT22;8446;50.99880500;6.25021400;2024-03-02T12:22:45;13.00;99.90
16666;DHT22;8446;50.99880500;6.25021400;2024-03-02T12:25:20;12.90;99.90
16666;DHT22;8446;50.99880500;6.25021400;2024-03-02T12:27:54;13.10;99.90
16666;DHT22;8446;50.99880500;6.25021400;2024-03-02T12:30:27;13.20;99.90
16666;DHT22;8446;50.99880500;6.25021400;2024-03-02T12:33:00;13.10;99.90
16666;DHT22;8446;50.99880500;6.25021400;2024-03-02T12:35:33;13.00;99.90
16666;DHT22;8446;50.99880500;6.25021400;2024-03-02T12:38:11;12.90;99.90
16666;DHT22;8446;50.99880500;6.25021400;2024-03-02T12:40:43;13.00;99.90
16666;DHT22;8446;50.99880500;6.25021400;2024-03-02T12:43:15;13.10;99.90
16666;DHT22;8446;50.99880500;6.25021400;2024-03-02T12:45:47;13.20;99.90
16666;DHT22;8446;50.99880500;6.25021400;2024-03-02T12:48:19;13.40;99.90
16666;DHT22;8446;50.99880500;6.25021400;2024-03-02T12:50:52;13.50;99.90
16666;DHT22;8446;50.99880500;6.25021400;2024-03-02T12:53:24;13.60;99.90
16666;DHT22;8446;50.99880500;6.25021400;2024-03-02T12:55:56;13.80;99.90
16666;DHT22;8446;50.99880500;6.25021400;2024-03-02T12:58:28;13.70;99.90
16666;DHT22;8446;50.99880500;6.25021400;2024-03-02T13:01:07;13.70;99.90
16666;DHT22;8446;50.99880500;6.25021400;2024-03-02T13:03:40;13.40;99.90
16666;DHT22;8446;50.99880500;6.25021400;2024-03-02T13:06:13;13.30;99.90
16666;DHT22;8446;50.99880500;6.25021400;2024-03-02T13:08:46;13.20;99.90
16666;DHT22;8446;50.99880500;6.25021400;2024-03-02T13:11:18;13.10;99.90
16666;DHT22;8446;50.99880500;6.25021400;2024-03-02T13:13:50;13.10;99.90
16666;DHT22;8446;50.99880500;6.25021400;2024-03-02T13:16:21;13.00;99.90
16666;DHT22;8446;50.99880500;6.25021400;2024-03-02T13:18:55;13.00;99.90
16666;DHT22;8446;50.99880500;6.25021400;2024-03-02T13:21:29;13.00;99.90
16666;DHT22;8446;50.99880500;6.25021400;2024-03-02T13:24:00;13.20;99.90
16666;DHT22;8446;50.99880500;6.25021400;2024-03-02T13:26:33;13.10;99.90
16666;DHT22;8446;50.99880500;6.25021400;2024-03-02T13:29:05;13.00;99.90
16666;DHT22;8446;50.99880500;6.25021400;2024-03-02T13:31:38;13.00;99.90
16666;DHT22;8446;50.99880500;6.25021400;2024-03-02T13:34:10;12.90;99.90
16666;DHT22;8446;50.99880500;6.25021400;2024-03-02T13:36:44;12.90;99.90
16666;DHT22;8446;50.99880500;6.25021400;2024-03-02T13:39:15;12.90;99.90
16666;DHT22;8446;50.99880500;6.25021400;2024-03-02T13:41:47;13.00;99.90
16666;DHT22;8446;50.99880500;6.25021400;2024-03-02T13:44:23;13.00;99.90
16666;DHT22;8446;50.99880500;6.25021400;2024-03-02T13:46:54;13.00;99.90
16666;DHT22;8446;50.99880500;6.25021400;2024-03-02T13:49:26;13.00;99.90
16666;DHT22;8446;50.99880500;6.25021400;2024-03-02T13:52:05;13.00;99.90
16666;DHT22;8446;50.99880500;6.25021400;2024-03-02T13:54:42;13.00;99.90
16666;DHT22;8446;50.99880500;6.25021400;2024-03-02T13:57:14;13.00;99.90
16666;DHT22;8446;50.99880500;6.25021400;2024-03-02T13:59:46;13.10;99.90
16666;DHT22;8446;50.99880500;6.25021400;2024-03-02T14:02:18;13.20;99.90
16666;DHT22;8446;50.99880500;6.25021400;2024-03-02T14:04:50;13.20;99.90
16666;DHT22;8446;50.99880500;6.25021400;2024-03-02T14:07:23;13.20;99.90
16666;DHT22;8446;50.99880500;6.25021400;2024-03-02T14:09:55;13.20;99.90
16666;DHT22;8446;50.99880500;6.25021400;2024-03-02T14:12:27;13.10;99.90